Time;durP1;ratioP1;P1;durP2;ratioP2;P2;SDS_P1;SDS_P2;PMS_P1;PMS_P2;Temp;Humidity;BMP_temperature;BMP_pressure;BME280_temperature;BME280_humidity;BME280_pressure;Samples;Min_cycle;Max_cycle;Signal;HPM_P1;HPM_P2
2023/01/28 00:00:06;;;;;;;5.77;3.17;;;6.60;99.90;;;;;;4878329;29;20094;-87
2023/01/28 00:02:33;;;;;;;5.15;2.95;;;6.60;99.90;;;;;;4884200;29;20027;-87
2023/01/28 00:04:59;;;;;;;5.22;2.92;;;6.60;99.90;;;;;;4901886;29;20031;-87
2023/01/28 00:07:24;;;;;;;5.90;2.80;;;6.60;99.90;;;;;;4908510;29;20526;-87
2023/01/28 00:09:50;;;;;;;5.57;2.95;;;6.60;99.90;;;;;;4910399;28;20039;-87
2023/01/28 00:12:16;;;;;;;5.23;2.97;;;6.60;99.90;;;;;;4903482;29;20256;-87
2023/01/28 00:14:41;;;;;;;5.35;3.00;;;6.60;99.90;;;;;;4886254;29;20055;-87
2023/01/28 00:17:07;;;;;;;6.03;3.07;;;6.60;99.90;;;;;;4884516;29;21813;-87
2023/01/28 00:19:33;;;;;;;6.95;3.65;;;6.60;99.90;;;;;;4892417;29;20032;-87
2023/01/28 00:21:58;;;;;;;5.97;3.40;;;6.60;99.90;;;;;;4882535;29;20036;-87
2023/01/28 00:24:24;;;;;;;7.20;3.40;;;6.60;99.90;;;;;;4896351;29;20043;-87
2023/01/28 00:26:50;;;;;;;6.90;3.70;;;6.60;99.90;;;;;;4879335;29;20369;-87
2023/01/28 00:29:16;;;;;;;7.00;3.85;;;6.60;99.90;;;;;;4898670;29;20036;-87
2023/01/28 00:31:42;;;;;;;6.35;3.28;;;6.60;99.90;;;;;;4910096;29;20063;-87
2023/01/28 00:34:08;;;;;;;5.87;3.27;;;6.60;99.90;;;;;;4867028;29;20144;-87
2023/01/28 00:36:38;;;;;;;6.22;3.30;;;6.60;99.90;;;;;;4905474;29;20047;-87
2023/01/28 00:39:05;;;;;;;6.30;3.40;;;6.50;99.90;;;;;;4913215;28;20366;-87
2023/01/28 00:41:31;;;;;;;5.93;3.10;;;6.50;99.90;;;;;;4926070;28;20028;-87
2023/01/28 00:43:57;;;;;;;7.67;3.77;;;6.50;99.90;;;;;;4906989;28;20061;-88
2023/01/28 00:46:25;;;;;;;7.07;3.55;;;6.50;99.90;;;;;;4936855;28;20342;-87
2023/01/28 00:48:51;;;;;;;6.47;3.50;;;6.50;99.90;;;;;;4890516;28;20984;-87
2023/01/28 00:51:18;;;;;;;7.18;3.25;;;6.50;99.90;;;;;;4911122;28;20035;-87
2023/01/28 00:53:44;;;;;;;6.80;3.20;;;6.50;99.90;;;;;;4917824;28;20369;-87
2023/01/28 00:56:13;;;;;;;6.25;3.08;;;6.50;99.90;;;;;;4938072;28;20023;-87
2023/01/28 00:58:39;;;;;;;7.10;3.63;;;6.50;99.90;;;;;;4941477;28;20403;-87
2023/01/28 01:01:16;;;;;;;6.38;3.03;;;6.50;99.90;;;;;;4906835;28;20230;-87
2023/01/28 01:03:43;;;;;;;6.37;3.27;;;6.40;99.90;;;;;;4925280;28;20096;-87
2023/01/28 01:06:10;;;;;;;6.47;3.25;;;6.40;99.90;;;;;;4925757;28;20026;-87
2023/01/28 01:08:38;;;;;;;7.53;3.75;;;6.50;99.90;;;;;;4936064;28;20187;-87
2023/01/28 01:11:06;;;;;;;8.00;3.72;;;6.40;99.90;;;;;;4932455;28;20190;-87
2023/01/28 01:13:35;;;;;;;7.05;3.75;;;6.40;99.90;;;;;;4936805;28;20027;-87
2023/01/28 01:16:21;;;;;;;6.20;3.33;;;6.40;99.90;;;;;;4935816;28;20035;-88
2023/01/28 01:18:49;;;;;;;6.00;3.10;;;6.40;99.90;;;;;;4909024;28;20026;-87
2023/01/28 01:21:16;;;;;;;7.35;3.80;;;6.40;99.90;;;;;;4926465;28;20899;-87
2023/01/28 01:23:42;;;;;;;6.63;3.30;;;6.40;99.90;;;;;;4922359;28;20023;-87
2023/01/28 01:26:09;;;;;;;6.82;3.45;;;6.40;99.90;;;;;;4905979;28;20260;-87
2023/01/28 01:28:35;;;;;;;6.90;3.10;;;6.40;99.90;;;;;;4923526;28;20034;-86
2023/01/28 01:31:13;;;;;;;7.05;3.42;;;6.40;99.90;;;;;;4927730;28;20027;-87
2023/01/28 01:33:43;;;;;;;6.15;3.10;;;6.40;99.90;;;;;;4938386;28;20031;-87
2023/01/28 01:36:10;;;;;;;6.82;3.25;;;6.30;99.90;;;;;;4911332;28;20121;-87
2023/01/28 01:38:37;;;;;;;6.78;3.30;;;6.30;99.90;;;;;;4917927;28;20034;-87
2023/01/28 01:41:04;;;;;;;7.40;3.57;;;6.40;99.90;;;;;;4909917;28;20042;-87
2023/01/28 01:44:04;;;;;;;6.28;3.08;;;6.30;99.90;;;;;;4918951;28;20101;-87
2023/01/28 01:46:44;;;;;;;7.40;3.20;;;6.30;99.90;;;;;;4921754;28;20141;-87
2023/01/28 01:49:18;;;;;;;7.10;3.45;;;6.30;99.90;;;;;;4927013;28;20034;-87
2023/01/28 01:51:47;;;;;;;7.03;3.22;;;6.30;99.90;;;;;;4907974;28;20092;-87
2023/01/28 01:54:14;;;;;;;6.27;3.33;;;6.30;99.90;;;;;;4924298;28;20061;-86
2023/01/28 01:56:43;;;;;;;6.53;3.10;;;6.30;99.90;;;;;;4933804;28;20078;-87
2023/01/28 01:59:16;;;;;;;6.20;2.95;;;6.30;99.90;;;;;;4935855;28;20089;-87
2023/01/28 02:01:44;;;;;;;6.40;3.22;;;6.30;99.90;;;;;;4918364;28;20094;-87
2023/01/28 02:04:20;;;;;;;6.50;3.22;;;6.30;99.90;;;;;;4936132;28;20234;-87
2023/01/28 02:06:46;;;;;;;6.53;2.93;;;6.30;99.90;;;;;;4890074;28;20035;-87
2023/01/28 02:09:31;;;;;;;7.05;3.47;;;6.30;99.90;;;;;;4928450;28;20130;-87
2023/01/28 02:12:07;;;;;;;6.22;3.00;;;6.30;99.90;;;;;;4905942;28;20386;-87
2023/01/28 02:14:36;;;;;;;7.07;3.50;;;6.30;99.90;;;;;;4933413;28;20037;-87
2023/01/28 02:17:02;;;;;;;7.13;3.45;;;6.30;99.90;;;;;;4895147;28;20604;-87
2023/01/28 02:19:47;;;;;;;7.30;3.23;;;6.30;99.90;;;;;;4932565;28;20563;-87
2023/01/28 02:22:31;;;;;;;7.20;3.20;;;6.30;99.90;;;;;;4904336;28;20081;-87
2023/01/28 02:25:19;;;;;;;6.05;3.10;;;6.30;99.90;;;;;;4938237;28;20039;-87
2023/01/28 02:28:06;;;;;;;5.22;2.67;;;6.30;99.90;;;;;;4910935;28;20057;-87
2023/01/28 02:30:40;;;;;;;6.03;2.92;;;6.20;99.90;;;;;;4942533;28;20060;-87
2023/01/28 02:33:30;;;;;;;5.93;2.90;;;6.20;99.90;;;;;;4902182;28;20226;-87
2023/01/28 02:35:59;;;;;;;6.00;3.05;;;6.20;99.90;;;;;;4919504;28;21328;-86
2023/01/28 02:38:35;;;;;;;7.80;3.17;;;6.20;99.90;;;;;;4926917;28;20027;-86
2023/01/28 02:41:07;;;;;;;6.60;3.05;;;6.20;99.90;;;;;;4914547;28;20125;-87
2023/01/28 02:43:42;;;;;;;6.78;3.20;;;6.20;99.90;;;;;;4926238;28;20061;-87
2023/01/28 02:49:13;;;;;;;6.85;3.30;;;6.20;99.90;;;;;;4941762;28;20035;-87
2023/01/28 02:51:55;;;;;;;6.93;3.40;;;6.20;99.90;;;;;;4936037;28;20759;-87
2023/01/28 02:54:59;;;;;;;6.55;3.40;;;6.20;99.90;;;;;;4901464;28;20042;-87
2023/01/28 02:57:43;;;;;;;5.78;2.90;;;6.20;99.90;;;;;;4880007;29;20044;-87
2023/01/28 03:00:24;;;;;;;7.47;3.40;;;6.20;99.90;;;;;;4876182;29;20083;-86
2023/01/28 03:03:13;;;;;;;6.88;2.97;;;6.10;99.90;;;;;;4915824;28;20042;-87
2023/01/28 03:06:02;;;;;;;7.63;3.30;;;6.10;99.90;;;;;;4920402;28;20109;-87
2023/01/28 03:36:49;;;;;;;6.50;2.80;;;6.00;99.90;;;;;;4945223;28;20023;-87
2023/01/28 03:39:17;;;;;;;6.72;3.22;;;6.00;99.90;;;;;;4922457;28;20030;-87
2023/01/28 03:41:54;;;;;;;6.20;2.93;;;6.00;99.90;;;;;;4890464;28;20848;-87
2023/01/28 03:47:06;;;;;;;5.80;2.75;;;6.00;99.90;;;;;;4935109;28;20538;-87
2023/01/28 03:49:31;;;;;;;6.55;3.03;;;6.00;99.90;;;;;;4911384;28;20062;-87
2023/01/28 03:51:57;;;;;;;6.43;3.10;;;6.00;99.90;;;;;;4939266;28;20257;-87
2023/01/28 03:54:22;;;;;;;7.97;3.53;;;6.00;99.90;;;;;;4930517;28;20385;-86
2023/01/28 03:56:48;;;;;;;6.60;3.03;;;6.00;99.90;;;;;;4893094;28;20420;-87
2023/01/28 03:59:14;;;;;;;6.30;3.10;;;6.00;99.90;;;;;;4907610;28;20487;-87
2023/01/28 04:01:40;;;;;;;5.53;2.80;;;6.00;99.90;;;;;;4917175;28;20487;-87
2023/01/28 04:04:06;;;;;;;6.97;3.55;;;6.00;99.90;;;;;;4924987;28;20120;-87
2023/01/28 04:06:31;;;;;;;6.50;3.30;;;6.00;99.90;;;;;;4913272;28;20031;-87
2023/01/28 04:08:58;;;;;;;7.80;3.65;;;6.00;99.90;;;;;;4931445;28;20030;-88
2023/01/28 04:11:25;;;;;;;7.45;3.80;;;6.00;99.90;;;;;;4891437;28;20491;-87
2023/01/28 04:13:51;;;;;;;7.53;3.30;;;6.00;99.90;;;;;;4937447;28;20059;-87
2023/01/28 04:16:19;;;;;;;7.10;3.38;;;6.00;99.90;;;;;;4934621;28;20564;-86
2023/01/28 04:18:44;;;;;;;7.35;3.67;;;6.00;99.90;;;;;;4911723;28;20026;-87
2023/01/28 04:21:11;;;;;;;5.95;3.10;;;6.00;99.90;;;;;;4905722;28;20626;-88
2023/01/28 04:23:37;;;;;;;6.63;3.58;;;6.00;99.90;;;;;;4934073;28;20041;-87
2023/01/28 04:26:03;;;;;;;8.00;3.97;;;6.00;99.90;;;;;;4898490;28;20224;-86
2023/01/28 04:28:29;;;;;;;7.20;3.60;;;5.90;99.90;;;;;;4917011;28;20063;-87
2023/01/28 04:30:55;;;;;;;7.47;3.95;;;5.90;99.90;;;;;;4918794;28;20050;-87
2023/01/28 04:33:21;;;;;;;6.30;3.30;;;6.00;99.90;;;;;;4929023;28;20141;-87
2023/01/28 04:35:46;;;;;;;6.97;3.60;;;5.90;99.90;;;;;;4938643;28;20043;-87
2023/01/28 04:38:12;;;;;;;6.63;3.22;;;5.90;99.90;;;;;;4912564;28;20444;-87
2023/01/28 04:40:38;;;;;;;6.53;3.03;;;5.90;99.90;;;;;;4944539;28;20032;-86
2023/01/28 04:43:03;;;;;;;7.17;3.60;;;5.90;99.90;;;;;;4923248;28;20866;-87
2023/01/28 04:45:29;;;;;;;7.53;3.67;;;5.90;99.90;;;;;;4912433;28;20467;-87
2023/01/28 04:47:56;;;;;;;6.70;3.35;;;5.90;99.90;;;;;;4908292;28;20023;-87
2023/01/28 04:50:21;;;;;;;7.55;3.50;;;5.90;99.90;;;;;;4936377;28;20499;-87
2023/01/28 04:52:47;;;;;;;7.13;3.57;;;5.90;99.90;;;;;;4921036;28;20027;-87
2023/01/28 04:55:13;;;;;;;7.38;3.53;;;5.90;99.90;;;;;;4948679;28;20028;-88
2023/01/28 04:57:39;;;;;;;6.07;3.17;;;5.80;99.90;;;;;;4927571;28;20058;-87
2023/01/28 05:00:05;;;;;;;6.30;2.93;;;5.90;99.90;;;;;;4922868;28;20165;-87
2023/01/28 05:02:31;;;;;;;7.63;3.47;;;5.80;99.90;;;;;;4919379;28;20464;-89
2023/01/28 05:04:56;;;;;;;6.60;3.50;;;5.90;99.90;;;;;;4916417;28;20532;-88
2023/01/28 05:07:22;;;;;;;7.90;3.63;;;5.80;99.90;;;;;;4933107;28;20019;-87
2023/01/28 05:09:48;;;;;;;6.47;3.40;;;5.80;99.90;;;;;;4907742;28;20043;-87
2023/01/28 05:12:14;;;;;;;6.40;3.23;;;5.80;99.90;;;;;;4912425;28;20043;-87
2023/01/28 05:14:40;;;;;;;6.68;3.83;;;5.80;99.90;;;;;;4946904;28;20039;-87
2023/01/28 05:17:05;;;;;;;6.33;3.40;;;5.80;99.90;;;;;;4936864;28;20240;-87
2023/01/28 05:19:31;;;;;;;6.47;2.97;;;5.80;99.90;;;;;;4937020;28;20019;-87
2023/01/28 05:21:57;;;;;;;6.97;3.53;;;5.80;99.90;;;;;;4903927;28;20626;-88
2023/01/28 05:24:23;;;;;;;7.10;3.50;;;5.80;99.90;;;;;;4911192;28;20062;-88
2023/01/28 05:26:49;;;;;;;5.53;2.88;;;5.70;99.90;;;;;;4923083;28;20815;-88
2023/01/28 05:29:15;;;;;;;6.30;3.17;;;5.80;99.90;;;;;;4927323;28;20503;-87
2023/01/28 05:31:40;;;;;;;7.85;3.40;;;5.80;99.90;;;;;;4914740;28;20034;-88
2023/01/28 05:34:07;;;;;;;6.45;3.15;;;5.70;99.90;;;;;;4949104;28;20276;-88
2023/01/28 05:36:33;;;;;;;6.47;3.40;;;5.70;99.90;;;;;;4913168;28;20043;-87
2023/01/28 05:38:58;;;;;;;6.78;3.25;;;5.70;99.90;;;;;;4927203;28;20157;-86
2023/01/28 05:41:24;;;;;;;7.33;3.73;;;5.70;99.90;;;;;;4935524;28;20385;-86
2023/01/28 05:43:49;;;;;;;7.60;3.78;;;5.70;99.90;;;;;;4903638;28;20054;-87
2023/01/28 05:46:15;;;;;;;6.87;3.50;;;5.60;99.90;;;;;;4918434;28;20053;-87
2023/01/28 05:48:41;;;;;;;7.23;3.60;;;5.60;99.90;;;;;;4893373;28;20406;-87
2023/01/28 05:51:06;;;;;;;7.10;3.63;;;5.60;99.90;;;;;;4930582;28;20286;-87
2023/01/28 05:53:32;;;;;;;7.15;3.45;;;5.60;99.90;;;;;;4927831;28;20042;-87
2023/01/28 05:55:58;;;;;;;6.70;3.30;;;5.60;99.90;;;;;;4906958;28;20030;-87
2023/01/28 05:58:25;;;;;;;7.35;3.60;;;5.60;99.90;;;;;;4895666;28;20039;-87
2023/01/28 06:00:54;;;;;;;6.53;3.30;;;5.60;99.90;;;;;;4928879;28;20177;-87
2023/01/28 06:03:19;;;;;;;6.63;3.50;;;5.60;99.90;;;;;;4879648;28;20050;-87
2023/01/28 06:05:47;;;;;;;6.30;3.10;;;5.60;99.90;;;;;;4916334;28;20030;-88
2023/01/28 06:08:13;;;;;;;6.15;3.10;;;5.60;99.90;;;;;;4917934;28;20042;-87
2023/01/28 06:10:38;;;;;;;6.57;3.20;;;5.60;99.90;;;;;;4906418;28;20037;-87
2023/01/28 06:13:04;;;;;;;7.00;3.40;;;5.60;99.90;;;;;;4919098;28;20082;-87
2023/01/28 06:15:30;;;;;;;7.63;3.60;;;5.60;99.90;;;;;;4931999;28;20462;-89
2023/01/28 06:17:56;;;;;;;7.80;4.00;;;5.60;99.90;;;;;;4923420;28;20062;-86
2023/01/28 06:20:22;;;;;;;7.20;3.60;;;5.60;99.90;;;;;;4922718;28;20667;-88
2023/01/28 06:22:50;;;;;;;7.57;3.55;;;5.60;99.90;;;;;;4927345;28;20027;-86
2023/01/28 06:25:16;;;;;;;7.18;3.47;;;5.60;99.90;;;;;;4919684;28;20273;-87
2023/01/28 06:27:42;;;;;;;6.67;3.47;;;5.50;99.90;;;;;;4916461;28;20522;-88
2023/01/28 06:30:08;;;;;;;7.57;3.92;;;5.60;99.90;;;;;;4899754;28;20338;-88
2023/01/28 06:32:34;;;;;;;7.55;3.72;;;5.50;99.90;;;;;;4952055;28;20023;-87
2023/01/28 06:34:59;;;;;;;7.23;3.47;;;5.60;99.90;;;;;;4901406;28;20259;-88
2023/01/28 06:37:25;;;;;;;5.55;3.03;;;5.50;99.90;;;;;;4933687;28;20034;-87
2023/01/28 06:39:51;;;;;;;6.40;3.13;;;5.50;99.90;;;;;;4909531;28;20116;-87
2023/01/28 06:42:17;;;;;;;6.72;3.42;;;5.50;99.90;;;;;;4926449;28;20142;-87
2023/01/28 06:44:43;;;;;;;7.22;3.60;;;5.50;99.90;;;;;;4905580;28;20122;-87
2023/01/28 06:47:09;;;;;;;7.47;3.40;;;5.50;99.90;;;;;;4914080;28;20272;-88
2023/01/28 06:49:36;;;;;;;6.30;3.53;;;5.50;99.90;;;;;;4946352;28;20042;-87
2023/01/28 06:52:03;;;;;;;6.60;3.53;;;5.50;99.90;;;;;;4915695;28;20467;-89
2023/01/28 06:54:29;;;;;;;7.22;3.53;;;5.50;99.90;;;;;;4931509;28;20023;-89
2023/01/28 06:56:54;;;;;;;6.77;3.27;;;5.50;99.90;;;;;;4902611;28;20045;-87
2023/01/28 06:59:20;;;;;;;7.47;3.78;;;5.40;99.90;;;;;;4925169;28;20034;-88
2023/01/28 07:01:46;;;;;;;6.67;3.33;;;5.40;99.90;;;;;;4903282;28;20077;-87
2023/01/28 07:04:12;;;;;;;6.72;3.33;;;5.50;99.90;;;;;;4942819;28;20534;-87
2023/01/28 07:06:37;;;;;;;6.93;3.30;;;5.40;99.90;;;;;;4918289;28;20475;-88
2023/01/28 07:09:03;;;;;;;6.88;3.20;;;5.40;99.90;;;;;;4913906;28;20716;-89
2023/01/28 07:11:29;;;;;;;7.55;3.65;;;5.40;99.90;;;;;;4914840;28;20026;-87
2023/01/28 07:13:55;;;;;;;7.00;2.93;;;5.40;99.90;;;;;;4915293;28;20623;-86
2023/01/28 07:16:20;;;;;;;7.90;3.60;;;5.40;99.90;;;;;;4894589;28;20042;-88
2023/01/28 07:18:46;;;;;;;6.88;3.30;;;5.40;99.90;;;;;;4918493;28;20415;-88
2023/01/28 07:21:12;;;;;;;6.80;3.30;;;5.40;99.90;;;;;;4915055;28;20149;-88
2023/01/28 07:23:38;;;;;;;7.70;3.65;;;5.40;99.90;;;;;;4930175;28;20026;-88
2023/01/28 07:26:04;;;;;;;7.20;3.90;;;5.30;99.90;;;;;;4898691;28;20161;-88
2023/01/28 07:28:30;;;;;;;7.00;3.50;;;5.30;99.90;;;;;;4919656;28;20031;-87
2023/01/28 07:30:56;;;;;;;6.78;3.30;;;5.30;99.90;;;;;;4906730;28;20038;-87
2023/01/28 07:33:22;;;;;;;6.32;3.40;;;5.30;99.90;;;;;;4935136;28;20050;-88
2023/01/28 07:35:48;;;;;;;6.50;3.30;;;5.30;99.90;;;;;;4918063;28;20019;-87
2023/01/28 07:38:14;;;;;;;8.55;3.88;;;5.30;99.90;;;;;;4944484;28;20300;-87
2023/01/28 07:40:44;;;;;;;9.27;4.40;;;5.30;99.90;;;;;;4937616;28;20034;-87
2023/01/28 07:43:09;;;;;;;9.30;4.03;;;5.30;99.90;;;;;;4912952;28;20193;-88
2023/01/28 07:45:36;;;;;;;7.68;3.72;;;5.30;99.90;;;;;;4921765;28;20081;-87
2023/01/28 07:48:06;;;;;;;7.85;3.42;;;5.30;99.90;;;;;;4898750;28;20244;-87
2023/01/28 07:50:34;;;;;;;7.90;3.97;;;5.30;99.90;;;;;;4916059;28;20030;-88
2023/01/28 07:53:05;;;;;;;7.60;4.00;;;5.30;99.90;;;;;;4916885;28;20209;-87
2023/01/28 07:55:34;;;;;;;7.75;3.50;;;5.30;99.90;;;;;;4934924;28;20054;-87
2023/01/28 07:58:00;;;;;;;7.80;3.92;;;5.30;99.90;;;;;;4910872;28;20228;-87
2023/01/28 08:00:28;;;;;;;7.63;3.60;;;5.30;99.90;;;;;;4920536;28;20486;-87
2023/01/28 08:03:00;;;;;;;8.18;3.83;;;5.30;99.90;;;;;;4906939;28;21200;-87
2023/01/28 08:05:38;;;;;;;7.57;3.40;;;5.30;99.90;;;;;;4936845;28;20492;-87
2023/01/28 08:08:03;;;;;;;8.77;4.22;;;5.30;99.90;;;;;;4915590;28;20707;-87
2023/01/28 08:10:29;;;;;;;8.18;3.80;;;5.30;99.90;;;;;;4912476;28;20561;-87
2023/01/28 08:13:00;;;;;;;7.70;3.60;;;5.30;99.90;;;;;;4910389;28;20039;-87
2023/01/28 08:15:28;;;;;;;8.20;3.83;;;5.30;99.90;;;;;;4921860;28;20035;-87
2023/01/28 08:17:55;;;;;;;8.60;4.13;;;5.30;99.90;;;;;;4885006;28;20039;-87
2023/01/28 08:20:22;;;;;;;7.43;3.78;;;5.30;99.90;;;;;;4931321;28;20057;-87
2023/01/28 08:22:48;;;;;;;7.85;4.18;;;5.30;99.90;;;;;;4901198;28;20034;-87
2023/01/28 08:25:14;;;;;;;9.03;4.37;;;5.30;99.90;;;;;;4909506;28;20201;-87
2023/01/28 08:27:40;;;;;;;7.63;3.90;;;5.30;99.90;;;;;;4928423;28;20035;-87
2023/01/28 08:30:08;;;;;;;7.88;3.95;;;5.30;99.90;;;;;;4902210;28;20035;-87
2023/01/28 08:32:34;;;;;;;6.70;3.20;;;5.30;99.90;;;;;;4882845;28;20033;-86
2023/01/28 08:35:00;;;;;;;7.63;3.83;;;5.30;99.90;;;;;;4925554;28;20130;-87
2023/01/28 08:37:26;;;;;;;8.18;3.88;;;5.30;99.90;;;;;;4918715;28;20031;-87
2023/01/28 08:39:51;;;;;;;8.32;4.05;;;5.40;99.90;;;;;;4926342;28;20061;-87
2023/01/28 08:42:17;;;;;;;8.57;4.00;;;5.40;99.90;;;;;;4913194;28;20165;-87
2023/01/28 08:44:43;;;;;;;8.55;4.20;;;5.40;99.90;;;;;;4910458;28;20042;-87
2023/01/28 08:47:09;;;;;;;9.60;4.70;;;5.40;99.90;;;;;;4914931;28;20618;-87
2023/01/28 08:49:34;;;;;;;7.68;3.90;;;5.40;99.90;;;;;;4911651;28;20524;-86
2023/01/28 08:52:00;;;;;;;9.50;4.63;;;5.40;99.90;;;;;;4919261;28;20057;-89
2023/01/28 08:54:26;;;;;;;9.18;4.75;;;5.40;99.90;;;;;;4923216;28;20088;-89
2023/01/28 08:56:52;;;;;;;10.33;4.63;;;5.40;99.90;;;;;;4936712;28;20460;-89
2023/01/28 08:59:17;;;;;;;8.63;4.65;;;5.40;99.90;;;;;;4929314;28;20094;-90
2023/01/28 09:01:43;;;;;;;8.65;4.07;;;5.40;99.90;;;;;;4916284;28;20015;-90
2023/01/28 09:04:10;;;;;;;8.63;4.07;;;5.40;99.90;;;;;;4910031;28;20035;-87
2023/01/28 09:06:35;;;;;;;8.70;3.85;;;5.40;99.90;;;;;;4929776;28;20684;-87
2023/01/28 09:09:01;;;;;;;9.23;4.22;;;5.40;99.90;;;;;;4903955;28;20035;-88
2023/01/28 09:11:28;;;;;;;7.77;3.70;;;5.40;99.90;;;;;;4930585;28;20256;-88
2023/01/28 09:13:56;;;;;;;8.35;3.80;;;5.50;99.90;;;;;;4917114;28;20654;-88
2023/01/28 09:16:21;;;;;;;8.20;3.90;;;5.40;99.90;;;;;;4933722;28;20065;-87
2023/01/28 09:18:47;;;;;;;7.17;3.60;;;5.40;99.90;;;;;;4893994;28;20277;-87
2023/01/28 09:21:13;;;;;;;8.50;3.97;;;5.50;99.90;;;;;;4919222;28;20019;-90
2023/01/28 09:23:39;;;;;;;8.38;3.83;;;5.50;99.90;;;;;;4908927;28;20023;-89
2023/01/28 09:26:05;;;;;;;8.33;3.87;;;5.50;99.90;;;;;;4946212;28;20035;-89
2023/01/28 09:28:31;;;;;;;8.02;3.55;;;5.50;99.90;;;;;;4909364;28;20037;-89
2023/01/28 09:31:06;;;;;;;8.15;4.05;;;5.50;99.90;;;;;;4917967;28;20433;-90
2023/01/28 09:33:32;;;;;;;7.32;3.55;;;5.50;99.90;;;;;;4924325;28;20027;-89
2023/01/28 09:36:03;;;;;;;6.65;3.28;;;5.50;99.90;;;;;;4907550;28;20316;-90
2023/01/28 09:38:29;;;;;;;7.80;3.90;;;5.50;99.90;;;;;;4953782;28;20023;-89
2023/01/28 09:40:55;;;;;;;8.25;3.70;;;5.60;99.90;;;;;;4925777;28;20254;-89
2023/01/28 09:43:53;;;;;;;7.00;3.58;;;5.60;99.90;;;;;;4922795;28;20148;-87
2023/01/28 09:46:19;;;;;;;8.18;3.35;;;5.60;99.90;;;;;;4901317;28;20570;-87
2023/01/28 09:48:49;;;;;;;6.75;3.45;;;5.60;99.90;;;;;;4914102;28;20790;-88
2023/01/28 09:51:40;;;;;;;7.17;3.43;;;5.60;99.90;;;;;;4894446;28;20027;-88
2023/01/28 09:54:25;;;;;;;7.75;3.92;;;5.70;99.90;;;;;;4918585;28;20729;-88
2023/01/28 09:57:17;;;;;;;5.68;2.72;;;5.70;99.90;;;;;;4901628;28;20749;-88
2023/01/28 09:59:43;;;;;;;6.35;3.28;;;5.70;99.90;;;;;;4901385;28;20499;-87
2023/01/28 10:02:47;;;;;;;7.20;3.50;;;5.80;99.90;;;;;;4911733;28;20027;-89
2023/01/28 10:05:40;;;;;;;6.15;2.92;;;5.80;99.90;;;;;;4889832;29;20111;-88
2023/01/28 10:08:18;;;;;;;7.40;3.50;;;5.90;99.90;;;;;;4932819;28;20566;-88
2023/01/28 10:10:54;;;;;;;7.15;3.70;;;5.90;99.90;;;;;;4916126;28;20027;-87
2023/01/28 10:13:29;;;;;;;6.30;3.20;;;5.90;99.90;;;;;;4936434;28;20045;-87
2023/01/28 10:16:32;;;;;;;8.80;3.83;;;5.90;99.90;;;;;;4931387;28;20529;-86
2023/01/28 10:19:21;;;;;;;8.30;3.95;;;5.90;99.90;;;;;;4914566;28;20506;-88
2023/01/28 10:21:54;;;;;;;7.93;3.78;;;5.90;99.90;;;;;;4905409;28;20317;-88
2023/01/28 10:24:31;;;;;;;7.53;3.50;;;6.00;99.90;;;;;;4934057;28;20498;-87
2023/01/28 10:26:57;;;;;;;7.40;3.50;;;6.00;99.90;;;;;;4902654;28;20510;-88
2023/01/28 10:29:26;;;;;;;7.07;3.42;;;6.00;99.90;;;;;;4919572;28;20026;-87
2023/01/28 10:32:04;;;;;;;8.02;3.85;;;6.00;99.90;;;;;;4915123;28;20189;-87
2023/01/28 10:34:30;;;;;;;7.55;3.78;;;6.00;99.90;;;;;;4903716;28;20049;-88
2023/01/28 10:36:57;;;;;;;8.38;4.20;;;6.00;99.90;;;;;;4901789;28;20035;-87
2023/01/28 10:39:25;;;;;;;8.17;4.00;;;6.00;99.90;;;;;;4931679;28;20146;-89
2023/01/28 10:41:51;;;;;;;6.53;3.17;;;6.00;99.90;;;;;;4897515;28;21349;-87
2023/01/28 10:44:34;;;;;;;8.40;4.45;;;6.00;99.90;;;;;;4927714;28;20033;-89
2023/01/28 10:47:15;;;;;;;6.55;3.28;;;6.10;99.90;;;;;;4925168;28;20300;-88
2023/01/28 10:49:48;;;;;;;6.97;3.55;;;6.10;99.90;;;;;;4885104;28;20121;-88
2023/01/28 10:52:15;;;;;;;8.00;3.77;;;6.10;99.90;;;;;;4945976;28;20037;-87
2023/01/28 10:54:41;;;;;;;7.93;3.80;;;6.10;99.90;;;;;;4914768;28;20042;-87
2023/01/28 10:57:12;;;;;;;7.45;3.67;;;6.10;99.90;;;;;;4905046;28;20023;-87
2023/01/28 10:59:40;;;;;;;6.55;3.45;;;6.10;99.90;;;;;;4911413;28;20038;-89
2023/01/28 11:02:31;;;;;;;7.55;3.88;;;6.20;99.90;;;;;;4938640;28;20097;-87
2023/01/28 11:05:04;;;;;;;7.23;3.80;;;6.20;99.90;;;;;;4904940;28;20139;-87
2023/01/28 11:07:29;;;;;;;7.00;3.50;;;6.20;99.90;;;;;;4910171;28;20034;-88
2023/01/28 11:09:55;;;;;;;6.50;3.28;;;6.20;99.90;;;;;;4917849;28;20031;-87
2023/01/28 11:12:26;;;;;;;7.10;3.67;;;6.20;99.90;;;;;;4916965;28;20920;-87
2023/01/28 11:14:57;;;;;;;8.07;3.95;;;6.20;99.90;;;;;;4916172;28;20055;-87
2023/01/28 11:17:26;;;;;;;7.50;3.72;;;6.20;99.90;;;;;;4929660;28;20027;-87
2023/01/28 11:19:58;;;;;;;8.80;4.03;;;6.20;99.90;;;;;;4916326;28;20022;-87
2023/01/28 11:22:37;;;;;;;7.13;3.60;;;6.20;99.90;;;;;;4929245;28;20078;-87
2023/01/28 11:25:23;;;;;;;5.68;2.75;;;6.20;99.90;;;;;;4905794;28;20613;-85
2023/01/28 11:27:51;;;;;;;9.35;4.30;;;6.20;99.90;;;;;;4912347;28;20038;-88
2023/01/28 11:30:25;;;;;;;8.50;4.07;;;6.20;99.90;;;;;;4924683;28;20038;-87
2023/01/28 11:33:01;;;;;;;7.95;3.88;;;6.20;99.90;;;;;;4946438;28;20022;-87
2023/01/28 11:35:29;;;;;;;8.00;3.90;;;6.20;99.90;;;;;;4922874;28;20035;-88
2023/01/28 11:37:56;;;;;;;9.10;4.55;;;6.20;99.90;;;;;;4902077;28;20058;-87
2023/01/28 11:40:23;;;;;;;8.45;3.80;;;6.20;99.90;;;;;;4907627;28;20031;-89
2023/01/28 11:42:50;;;;;;;7.72;3.80;;;6.20;99.90;;;;;;4923332;28;20043;-89
2023/01/28 11:45:18;;;;;;;7.75;3.58;;;6.20;99.90;;;;;;4901839;28;20045;-88
2023/01/28 11:47:50;;;;;;;9.40;4.23;;;6.20;99.90;;;;;;4916503;28;20043;-87
2023/01/28 11:50:22;;;;;;;10.05;4.30;;;6.20;99.90;;;;;;4887667;28;20662;-88
2023/01/28 11:53:26;;;;;;;8.95;4.03;;;6.30;99.90;;;;;;4932766;28;20117;-87
2023/01/28 11:56:05;;;;;;;9.63;4.25;;;6.30;99.90;;;;;;4888279;28;20042;-88
2023/01/28 11:58:50;;;;;;;8.90;4.40;;;6.50;99.90;;;;;;4930890;28;20034;-87
2023/01/28 12:01:57;;;;;;;8.03;3.80;;;6.60;99.90;;;;;;4925733;28;20447;-87
2023/01/28 12:05:10;;;;;;;7.20;3.70;;;6.80;99.90;;;;;;4921513;28;20049;-87
2023/01/28 12:08:00;;;;;;;7.80;3.70;;;7.30;99.90;;;;;;4889172;28;20117;-87
2023/01/28 12:10:51;;;;;;;8.80;4.10;;;7.70;99.90;;;;;;4890390;28;20530;-87
2023/01/28 12:13:32;;;;;;;8.80;4.47;;;8.20;99.90;;;;;;4916812;28;20438;-86
2023/01/28 12:16:23;;;;;;;11.40;5.50;;;8.80;99.90;;;;;;4915276;28;20409;-86
2023/01/28 12:19:15;;;;;;;10.45;5.40;;;9.20;99.90;;;;;;4910584;28;20039;-87
2023/01/28 12:21:47;;;;;;;10.85;5.90;;;9.80;99.90;;;;;;4880187;28;20030;-87
2023/01/28 12:24:29;;;;;;;9.88;5.15;;;10.00;99.90;;;;;;4924365;28;20343;-87
2023/01/28 12:27:03;;;;;;;10.77;5.60;;;10.20;99.90;;;;;;4926602;28;20133;-87
2023/01/28 12:29:46;;;;;;;9.90;5.13;;;10.20;99.90;;;;;;4910360;28;20042;-87
2023/01/28 12:32:30;;;;;;;9.38;4.97;;;10.20;99.90;;;;;;4904319;28;20159;-87
2023/01/28 12:35:06;;;;;;;9.30;5.10;;;10.20;99.90;;;;;;4935992;28;20122;-86
2023/01/28 12:37:51;;;;;;;12.55;6.43;;;10.30;99.90;;;;;;4895368;28;20063;-86
2023/01/28 12:40:47;;;;;;;14.25;7.60;;;10.50;99.90;;;;;;4903496;28;20027;-87
2023/01/28 12:43:44;;;;;;;12.07;6.53;;;10.80;99.90;;;;;;4917729;28;20034;-86
2023/01/28 12:46:41;;;;;;;12.95;7.13;;;11.10;99.90;;;;;;4937728;28;20035;-86
2023/01/28 12:49:15;;;;;;;12.18;6.95;;;11.40;99.90;;;;;;4950367;28;21568;-86
2023/01/28 12:51:47;;;;;;;11.52;6.75;;;11.60;99.90;;;;;;4930080;28;20019;-87
2023/01/28 12:54:29;;;;;;;10.98;6.80;;;11.70;99.90;;;;;;4925535;28;20311;-87
2023/01/28 12:56:55;;;;;;;10.90;6.50;;;11.90;99.90;;;;;;4914424;28;20019;-88
2023/01/28 12:59:28;;;;;;;10.70;6.25;;;12.10;99.90;;;;;;4933865;28;20908;-87
2023/01/28 13:02:12;;;;;;;11.35;6.63;;;12.40;99.90;;;;;;4908251;28;20826;-86
2023/01/28 13:04:44;;;;;;;9.85;5.70;;;12.70;99.90;;;;;;4926972;28;20451;-86
2023/01/28 13:07:13;;;;;;;9.93;6.00;;;13.00;99.90;;;;;;4893011;28;20613;-87
2023/01/28 13:09:53;;;;;;;9.07;5.50;;;13.30;99.90;;;;;;4894535;28;20484;-87
2023/01/28 13:12:21;;;;;;;8.13;5.25;;;13.50;99.90;;;;;;4906938;28;20256;-87
2023/01/28 13:14:48;;;;;;;8.80;5.45;;;13.60;99.90;;;;;;4918617;28;20562;-87
2023/01/28 13:17:31;;;;;;;9.48;5.57;;;13.70;99.90;;;;;;4932511;28;20579;-87
2023/01/28 13:19:58;;;;;;;8.95;5.50;;;13.70;99.90;;;;;;4905861;28;20464;-86
2023/01/28 13:22:26;;;;;;;9.23;5.20;;;13.60;99.90;;;;;;4925192;28;21837;-87
2023/01/28 13:24:53;;;;;;;8.90;5.35;;;13.50;99.90;;;;;;4914636;28;20586;-87
2023/01/28 13:27:27;;;;;;;8.38;5.30;;;13.30;99.90;;;;;;4892682;28;20035;-87
2023/01/28 13:30:02;;;;;;;9.48;5.53;;;13.00;99.90;;;;;;4920721;28;20558;-87
2023/01/28 13:32:34;;;;;;;8.53;5.17;;;12.80;99.90;;;;;;4955152;28;20581;-87
2023/01/28 13:35:04;;;;;;;8.02;4.72;;;12.50;99.90;;;;;;4926929;28;20558;-87
2023/01/28 13:37:43;;;;;;;8.02;4.80;;;12.20;99.90;;;;;;4925934;28;20606;-87
2023/01/28 13:40:11;;;;;;;8.55;4.75;;;12.00;99.90;;;;;;4935279;28;20431;-87
2023/01/28 13:42:37;;;;;;;7.75;4.30;;;11.70;99.90;;;;;;4908332;28;20527;-87
2023/01/28 13:45:15;;;;;;;7.93;4.43;;;11.50;99.90;;;;;;4933653;28;20061;-87
2023/01/28 13:47:45;;;;;;;7.60;4.22;;;11.30;99.90;;;;;;4941754;28;20933;-88